sensor_id;sensor_type;location;lat;lon;timestamp;temperature;humidity
49549;DHT22;35450;44.518;7.466;2023-02-28T00:01:07;4.70;96.50
49549;DHT22;35450;44.518;7.466;2023-02-28T00:04:11;4.60;96.90
49549;DHT22;35450;44.518;7.466;2023-02-28T00:07:15;4.80;96.60
49549;DHT22;35450;44.518;7.466;2023-02-28T00:10:25;4.80;96.00
49549;DHT22;35450;44.518;7.466;2023-02-28T00:13:30;4.90;96.20
49549;DHT22;35450;44.518;7.466;2023-02-28T00:16:35;4.90;96.10
49549;DHT22;35450;44.518;7.466;2023-02-28T00:19:38;5.00;96.20
49549;DHT22;35450;44.518;7.466;2023-02-28T00:22:45;4.90;96.10
49549;DHT22;35450;44.518;7.466;2023-02-28T00:25:50;5.00;96.20
49549;DHT22;35450;44.518;7.466;2023-02-28T00:28:55;5.10;96.20
49549;DHT22;35450;44.518;7.466;2023-02-28T00:32:00;5.00;95.90
49549;DHT22;35450;44.518;7.466;2023-02-28T00:35:05;5.10;95.90
49549;DHT22;35450;44.518;7.466;2023-02-28T00:38:09;5.00;95.90
49549;DHT22;35450;44.518;7.466;2023-02-28T00:41:13;5.10;95.70
49549;DHT22;35450;44.518;7.466;2023-02-28T00:44:18;5.10;95.70
49549;DHT22;35450;44.518;7.466;2023-02-28T00:47:25;4.90;95.40
49549;DHT22;35450;44.518;7.466;2023-02-28T00:50:29;4.80;95.70
49549;DHT22;35450;44.518;7.466;2023-02-28T00:53:34;4.90;95.90
49549;DHT22;35450;44.518;7.466;2023-02-28T00:56:38;4.80;95.90
49549;DHT22;35450;44.518;7.466;2023-02-28T00:59:42;5.00;96.00
49549;DHT22;35450;44.518;7.466;2023-02-28T01:02:46;5.00;96.00
49549;DHT22;35450;44.518;7.466;2023-02-28T01:05:52;5.00;95.90
49549;DHT22;35450;44.518;7.466;2023-02-28T01:08:59;5.10;96.10
49549;DHT22;35450;44.518;7.466;2023-02-28T01:12:03;5.20;96.10
49549;DHT22;35450;44.518;7.466;2023-02-28T01:15:10;5.10;95.60
49549;DHT22;35450;44.518;7.466;2023-02-28T01:18:15;5.10;95.30
49549;DHT22;35450;44.518;7.466;2023-02-28T01:21:21;5.00;95.50
49549;DHT22;35450;44.518;7.466;2023-02-28T01:24:25;5.00;95.60
49549;DHT22;35450;44.518;7.466;2023-02-28T01:27:29;4.80;96.20
49549;DHT22;35450;44.518;7.466;2023-02-28T01:30:33;4.70;96.40
49549;DHT22;35450;44.518;7.466;2023-02-28T01:33:38;4.70;96.50
49549;DHT22;35450;44.518;7.466;2023-02-28T01:36:42;4.80;96.40
49549;DHT22;35450;44.518;7.466;2023-02-28T01:39:47;4.80;95.90
49549;DHT22;35450;44.518;7.466;2023-02-28T01:42:52;4.80;95.60
49549;DHT22;35450;44.518;7.466;2023-02-28T01:45:58;4.70;95.80
49549;DHT22;35450;44.518;7.466;2023-02-28T01:49:13;4.70;96.20
49549;DHT22;35450;44.518;7.466;2023-02-28T01:52:19;4.80;96.10
49549;DHT22;35450;44.518;7.466;2023-02-28T01:55:24;4.80;96.00
49549;DHT22;35450;44.518;7.466;2023-02-28T01:58:36;4.70;95.90
49549;DHT22;35450;44.518;7.466;2023-02-28T02:01:40;4.90;96.10
49549;DHT22;35450;44.518;7.466;2023-02-28T02:05:00;4.90;96.20
49549;DHT22;35450;44.518;7.466;2023-02-28T02:08:12;5.00;96.40
49549;DHT22;35450;44.518;7.466;2023-02-28T02:11:18;4.90;96.10
49549;DHT22;35450;44.518;7.466;2023-02-28T02:15:32;4.80;96.40
49549;DHT22;35450;44.518;7.466;2023-02-28T02:44:52;4.90;96.40
49549;DHT22;35450;44.518;7.466;2023-02-28T02:47:59;4.90;96.50
49549;DHT22;35450;44.518;7.466;2023-02-28T02:51:10;4.70;96.20
49549;DHT22;35450;44.518;7.466;2023-02-28T02:54:22;4.60;96.90
49549;DHT22;35450;44.518;7.466;2023-02-28T02:57:32;4.40;97.30
49549;DHT22;35450;44.518;7.466;2023-02-28T03:00:52;4.40;97.40
49549;DHT22;35450;44.518;7.466;2023-02-28T03:03:59;4.60;97.40
49549;DHT22;35450;44.518;7.466;2023-02-28T03:07:04;4.50;97.20
49549;DHT22;35450;44.518;7.466;2023-02-28T03:10:39;4.40;97.60
49549;DHT22;35450;44.518;7.466;2023-02-28T03:13:49;4.20;98.10
49549;DHT22;35450;44.518;7.466;2023-02-28T03:20:41;4.10;98.30
49549;DHT22;35450;44.518;7.466;2023-02-28T03:24:03;4.10;98.40
49549;DHT22;35450;44.518;7.466;2023-02-28T03:30:49;4.30;98.30
49549;DHT22;35450;44.518;7.466;2023-02-28T03:34:12;4.40;98.00
49549;DHT22;35450;44.518;7.466;2023-02-28T03:37:21;4.50;97.70
49549;DHT22;35450;44.518;7.466;2023-02-28T03:40:28;4.50;97.80
49549;DHT22;35450;44.518;7.466;2023-02-28T03:43:36;4.60;97.80
49549;DHT22;35450;44.518;7.466;2023-02-28T03:50:29;4.70;98.00
49549;DHT22;35450;44.518;7.466;2023-02-28T03:53:42;4.80;97.40
49549;DHT22;35450;44.518;7.466;2023-02-28T03:56:59;4.80;97.60
49549;DHT22;35450;44.518;7.466;2023-02-28T04:03:17;4.80;97.80
49549;DHT22;35450;44.518;7.466;2023-02-28T04:06:23;4.80;97.60
49549;DHT22;35450;44.518;7.466;2023-02-28T04:09:27;4.80;97.80
49549;DHT22;35450;44.518;7.466;2023-02-28T04:12:31;4.80;97.70
49549;DHT22;35450;44.518;7.466;2023-02-28T04:15:35;4.80;97.70
49549;DHT22;35450;44.518;7.466;2023-02-28T04:18:41;4.90;97.90
49549;DHT22;35450;44.518;7.466;2023-02-28T04:21:51;4.80;98.40
49549;DHT22;35450;44.518;7.466;2023-02-28T04:24:55;4.70;98.50
49549;DHT22;35450;44.518;7.466;2023-02-28T04:27:59;4.70;98.40
49549;DHT22;35450;44.518;7.466;2023-02-28T04:31:04;4.60;98.40
49549;DHT22;35450;44.518;7.466;2023-02-28T04:34:09;4.70;98.60
49549;DHT22;35450;44.518;7.466;2023-02-28T04:37:12;4.60;98.20
49549;DHT22;35450;44.518;7.466;2023-02-28T04:40:16;4.70;98.30
49549;DHT22;35450;44.518;7.466;2023-02-28T04:43:20;4.80;98.20
49549;DHT22;35450;44.518;7.466;2023-02-28T04:46:24;4.80;98.10
49549;DHT22;35450;44.518;7.466;2023-02-28T04:49:28;4.80;98.10
49549;DHT22;35450;44.518;7.466;2023-02-28T04:52:32;4.90;98.00
49549;DHT22;35450;44.518;7.466;2023-02-28T04:55:37;4.80;98.30
49549;DHT22;35450;44.518;7.466;2023-02-28T04:58:44;4.80;98.20
49549;DHT22;35450;44.518;7.466;2023-02-28T05:01:48;4.80;98.40
49549;DHT22;35450;44.518;7.466;2023-02-28T05:04:52;4.70;98.70
49549;DHT22;35450;44.518;7.466;2023-02-28T05:07:56;4.70;98.40
49549;DHT22;35450;44.518;7.466;2023-02-28T05:11:02;4.70;98.60
49549;DHT22;35450;44.518;7.466;2023-02-28T05:14:10;4.80;98.50
49549;DHT22;35450;44.518;7.466;2023-02-28T05:17:14;4.80;98.10
49549;DHT22;35450;44.518;7.466;2023-02-28T05:20:19;4.80;97.80
49549;DHT22;35450;44.518;7.466;2023-02-28T05:23:24;4.70;97.60
49549;DHT22;35450;44.518;7.466;2023-02-28T05:26:29;4.70;97.80
49549;DHT22;35450;44.518;7.466;2023-02-28T05:29:33;4.70;97.80
49549;DHT22;35450;44.518;7.466;2023-02-28T05:32:38;4.70;97.80
49549;DHT22;35450;44.518;7.466;2023-02-28T05:35:46;4.80;97.80
49549;DHT22;35450;44.518;7.466;2023-02-28T05:38:50;4.70;97.40
49549;DHT22;35450;44.518;7.466;2023-02-28T05:41:55;4.60;97.70
49549;DHT22;35450;44.518;7.466;2023-02-28T05:44:59;4.70;97.30
49549;DHT22;35450;44.518;7.466;2023-02-28T05:48:03;4.80;97.40
49549;DHT22;35450;44.518;7.466;2023-02-28T05:51:08;4.80;97.30
49549;DHT22;35450;44.518;7.466;2023-02-28T05:54:12;4.90;97.30
49549;DHT22;35450;44.518;7.466;2023-02-28T05:57:16;4.90;97.40
49549;DHT22;35450;44.518;7.466;2023-02-28T06:00:20;4.80;97.70
49549;DHT22;35450;44.518;7.466;2023-02-28T06:03:24;4.80;97.70
49549;DHT22;35450;44.518;7.466;2023-02-28T06:06:29;4.70;98.10
49549;DHT22;35450;44.518;7.466;2023-02-28T06:09:33;4.70;98.70
49549;DHT22;35450;44.518;7.466;2023-02-28T06:12:37;4.70;98.80
49549;DHT22;35450;44.518;7.466;2023-02-28T06:15:42;4.70;99.00
49549;DHT22;35450;44.518;7.466;2023-02-28T06:18:45;4.70;98.90
49549;DHT22;35450;44.518;7.466;2023-02-28T06:21:50;4.60;98.80
49549;DHT22;35450;44.518;7.466;2023-02-28T06:24:55;4.60;98.90
49549;DHT22;35450;44.518;7.466;2023-02-28T06:28:00;4.50;99.20
49549;DHT22;35450;44.518;7.466;2023-02-28T06:31:10;4.70;99.10
49549;DHT22;35450;44.518;7.466;2023-02-28T06:34:14;4.80;98.90
49549;DHT22;35450;44.518;7.466;2023-02-28T06:37:18;4.80;98.80
49549;DHT22;35450;44.518;7.466;2023-02-28T06:40:22;4.80;99.10
49549;DHT22;35450;44.518;7.466;2023-02-28T06:43:31;4.80;99.00
49549;DHT22;35450;44.518;7.466;2023-02-28T06:46:35;4.70;99.30
49549;DHT22;35450;44.518;7.466;2023-02-28T06:49:40;4.80;99.20
49549;DHT22;35450;44.518;7.466;2023-02-28T06:52:45;4.80;99.30
49549;DHT22;35450;44.518;7.466;2023-02-28T06:55:49;4.80;99.60
49549;DHT22;35450;44.518;7.466;2023-02-28T06:58:53;4.80;99.50
49549;DHT22;35450;44.518;7.466;2023-02-28T07:01:57;4.90;99.30
49549;DHT22;35450;44.518;7.466;2023-02-28T07:05:01;4.90;99.10
49549;DHT22;35450;44.518;7.466;2023-02-28T07:08:06;4.90;99.10
49549;DHT22;35450;44.518;7.466;2023-02-28T07:11:10;4.80;98.90
49549;DHT22;35450;44.518;7.466;2023-02-28T07:14:14;4.80;99.00
49549;DHT22;35450;44.518;7.466;2023-02-28T07:17:18;4.80;98.90
49549;DHT22;35450;44.518;7.466;2023-02-28T07:20:23;4.80;98.90
49549;DHT22;35450;44.518;7.466;2023-02-28T07:23:27;4.80;98.80
49549;DHT22;35450;44.518;7.466;2023-02-28T07:26:31;4.70;98.50
49549;DHT22;35450;44.518;7.466;2023-02-28T07:29:37;4.70;98.30
49549;DHT22;35450;44.518;7.466;2023-02-28T07:32:41;4.80;98.20
49549;DHT22;35450;44.518;7.466;2023-02-28T07:35:45;4.90;98.10
49549;DHT22;35450;44.518;7.466;2023-02-28T07:38:49;5.00;97.90
49549;DHT22;35450;44.518;7.466;2023-02-28T07:41:53;5.00;97.90
49549;DHT22;35450;44.518;7.466;2023-02-28T07:45:02;5.00;97.90
49549;DHT22;35450;44.518;7.466;2023-02-28T07:48:06;4.90;98.10
49549;DHT22;35450;44.518;7.466;2023-02-28T07:51:14;4.90;97.90
49549;DHT22;35450;44.518;7.466;2023-02-28T07:54:18;4.90;97.80
49549;DHT22;35450;44.518;7.466;2023-02-28T07:57:22;4.90;97.80
49549;DHT22;35450;44.518;7.466;2023-02-28T08:00:26;4.80;97.70
49549;DHT22;35450;44.518;7.466;2023-02-28T08:03:30;4.90;97.50
49549;DHT22;35450;44.518;7.466;2023-02-28T08:06:34;4.80;98.00
49549;DHT22;35450;44.518;7.466;2023-02-28T08:09:40;4.90;98.30
49549;DHT22;35450;44.518;7.466;2023-02-28T08:12:44;4.80;98.30
49549;DHT22;35450;44.518;7.466;2023-02-28T08:15:48;5.00;98.30
49549;DHT22;35450;44.518;7.466;2023-02-28T08:18:53;5.00;98.30
49549;DHT22;35450;44.518;7.466;2023-02-28T08:21:57;5.10;98.20
49549;DHT22;35450;44.518;7.466;2023-02-28T08:25:01;5.10;98.50
49549;DHT22;35450;44.518;7.466;2023-02-28T08:28:05;5.10;98.40
49549;DHT22;35450;44.518;7.466;2023-02-28T08:31:13;5.20;98.10
49549;DHT22;35450;44.518;7.466;2023-02-28T08:34:18;5.30;98.20
49549;DHT22;35450;44.518;7.466;2023-02-28T08:37:22;5.30;97.90
49549;DHT22;35450;44.518;7.466;2023-02-28T08:40:26;5.40;97.90
49549;DHT22;35450;44.518;7.466;2023-02-28T08:43:30;5.40;97.80
49549;DHT22;35450;44.518;7.466;2023-02-28T08:46:34;5.40;97.80
49549;DHT22;35450;44.518;7.466;2023-02-28T08:49:38;5.40;97.80
49549;DHT22;35450;44.518;7.466;2023-02-28T08:52:43;5.50;97.90
49549;DHT22;35450;44.518;7.466;2023-02-28T08:55:47;5.60;97.70
49549;DHT22;35450;44.518;7.466;2023-02-28T08:58:58;5.60;97.80
49549;DHT22;35450;44.518;7.466;2023-02-28T09:02:02;5.40;98.00
49549;DHT22;35450;44.518;7.466;2023-02-28T09:05:07;5.60;97.90
49549;DHT22;35450;44.518;7.466;2023-02-28T09:08:12;5.50;97.70
49549;DHT22;35450;44.518;7.466;2023-02-28T09:11:16;5.60;97.50
49549;DHT22;35450;44.518;7.466;2023-02-28T09:14:20;5.70;97.30
49549;DHT22;35450;44.518;7.466;2023-02-28T09:17:24;5.70;97.30
49549;DHT22;35450;44.518;7.466;2023-02-28T09:20:28;5.70;97.20
49549;DHT22;35450;44.518;7.466;2023-02-28T09:23:32;5.70;97.30
49549;DHT22;35450;44.518;7.466;2023-02-28T09:26:37;5.80;96.80
49549;DHT22;35450;44.518;7.466;2023-02-28T09:29:41;5.90;96.40
49549;DHT22;35450;44.518;7.466;2023-02-28T09:32:45;5.90;96.00
49549;DHT22;35450;44.518;7.466;2023-02-28T09:36:00;5.90;95.80
49549;DHT22;35450;44.518;7.466;2023-02-28T09:39:05;6.00;96.00
49549;DHT22;35450;44.518;7.466;2023-02-28T09:42:31;6.00;96.00
49549;DHT22;35450;44.518;7.466;2023-02-28T09:45:39;6.00;96.70
49549;DHT22;35450;44.518;7.466;2023-02-28T09:48:47;5.90;97.00
49549;DHT22;35450;44.518;7.466;2023-02-28T09:55:11;5.90;97.10
49549;DHT22;35450;44.518;7.466;2023-02-28T10:12:04;5.20;97.60
49549;DHT22;35450;44.518;7.466;2023-02-28T10:15:14;5.20;97.90
49549;DHT22;35450;44.518;7.466;2023-02-28T10:18:23;5.40;98.00
49549;DHT22;35450;44.518;7.466;2023-02-28T10:21:34;5.60;97.70
49549;DHT22;35450;44.518;7.466;2023-02-28T10:24:51;5.70;97.00
49549;DHT22;35450;44.518;7.466;2023-02-28T10:28:13;5.80;96.80
49549;DHT22;35450;44.518;7.466;2023-02-28T10:31:20;5.80;97.10
49549;DHT22;35450;44.518;7.466;2023-02-28T10:34:25;5.70;96.40
49549;DHT22;35450;44.518;7.466;2023-02-28T10:37:29;5.90;96.40
49549;DHT22;35450;44.518;7.466;2023-02-28T10:40:35;5.90;96.00
49549;DHT22;35450;44.518;7.466;2023-02-28T10:43:40;6.00;96.10
49549;DHT22;35450;44.518;7.466;2023-02-28T10:46:45;6.00;96.10
49549;DHT22;35450;44.518;7.466;2023-02-28T10:49:50;6.00;95.80
49549;DHT22;35450;44.518;7.466;2023-02-28T10:53:15;6.00;96.20
49549;DHT22;35450;44.518;7.466;2023-02-28T10:56:24;6.00;96.30
49549;DHT22;35450;44.518;7.466;2023-02-28T10:59:31;6.00;96.20
49549;DHT22;35450;44.518;7.466;2023-02-28T11:02:36;6.10;96.30
49549;DHT22;35450;44.518;7.466;2023-02-28T11:05:46;6.10;96.20
49549;DHT22;35450;44.518;7.466;2023-02-28T11:08:58;6.10;95.70
49549;DHT22;35450;44.518;7.466;2023-02-28T11:12:08;6.20;95.40
49549;DHT22;35450;44.518;7.466;2023-02-28T11:15:26;6.20;95.20
49549;DHT22;35450;44.518;7.466;2023-02-28T11:18:49;5.90;95.70
49549;DHT22;35450;44.518;7.466;2023-02-28T11:22:02;6.00;95.80
49549;DHT22;35450;44.518;7.466;2023-02-28T11:25:26;6.00;96.00
49549;DHT22;35450;44.518;7.466;2023-02-28T11:28:35;6.00;96.30
49549;DHT22;35450;44.518;7.466;2023-02-28T11:31:40;5.90;96.80
49549;DHT22;35450;44.518;7.466;2023-02-28T11:34:46;6.00;96.70
49549;DHT22;35450;44.518;7.466;2023-02-28T11:37:50;5.90;96.60
49549;DHT22;35450;44.518;7.466;2023-02-28T11:44:02;6.10;95.80
49549;DHT22;35450;44.518;7.466;2023-02-28T11:54:27;5.90;95.70
49549;DHT22;35450;44.518;7.466;2023-02-28T12:18:34;6.30;94.70
49549;DHT22;35450;44.518;7.466;2023-02-28T12:22:05;6.20;95.10
49549;DHT22;35450;44.518;7.466;2023-02-28T12:32:39;6.20;95.70
49549;DHT22;35450;44.518;7.466;2023-02-28T12:35:55;6.10;95.80
49549;DHT22;35450;44.518;7.466;2023-02-28T12:39:02;6.10;95.80
49549;DHT22;35450;44.518;7.466;2023-02-28T12:42:26;6.00;96.10
49549;DHT22;35450;44.518;7.466;2023-02-28T12:46:02;6.10;95.90
49549;DHT22;35450;44.518;7.466;2023-02-28T12:49:09;6.10;95.70
49549;DHT22;35450;44.518;7.466;2023-02-28T12:52:17;6.10;95.50
49549;DHT22;35450;44.518;7.466;2023-02-28T12:59:13;6.00;95.50
49549;DHT22;35450;44.518;7.466;2023-02-28T13:05:29;6.00;96.00
49549;DHT22;35450;44.518;7.466;2023-02-28T13:11:49;5.90;96.00
49549;DHT22;35450;44.518;7.466;2023-02-28T13:15:17;6.00;95.80
49549;DHT22;35450;44.518;7.466;2023-02-28T13:18:45;6.10;95.50
49549;DHT22;35450;44.518;7.466;2023-02-28T13:21:50;6.20;95.10
49549;DHT22;35450;44.518;7.466;2023-02-28T13:24:56;6.10;95.00
49549;DHT22;35450;44.518;7.466;2023-02-28T13:28:02;6.10;95.10
49549;DHT22;35450;44.518;7.466;2023-02-28T13:31:08;6.10;95.20
49549;DHT22;35450;44.518;7.466;2023-02-28T13:34:16;6.00;95.40
49549;DHT22;35450;44.518;7.466;2023-02-28T13:40:33;6.10;95.10
49549;DHT22;35450;44.518;7.466;2023-02-28T13:53:40;6.00;95.10
49549;DHT22;35450;44.518;7.466;2023-02-28T14:00:36;5.90;94.70
49549;DHT22;35450;44.518;7.466;2023-02-28T14:07:23;5.80;94.40
49549;DHT22;35450;44.518;7.466;2023-02-28T14:10:32;5.90;94.50
49549;DHT22;35450;44.518;7.466;2023-02-28T14:13:42;5.90;94.60
49549;DHT22;35450;44.518;7.466;2023-02-28T14:16:50;5.90;94.60
49549;DHT22;35450;44.518;7.466;2023-02-28T14:19:54;5.90;94.50
49549;DHT22;35450;44.518;7.466;2023-02-28T14:30:07;5.80;94.90
49549;DHT22;35450;44.518;7.466;2023-02-28T14:33:22;5.90;95.00
49549;DHT22;35450;44.518;7.466;2023-02-28T14:36:33;5.80;95.00
49549;DHT22;35450;44.518;7.466;2023-02-28T14:39:41;5.80;95.00
49549;DHT22;35450;44.518;7.466;2023-02-28T14:42:56;5.80;94.90
49549;DHT22;35450;44.518;7.466;2023-02-28T14:46:02;5.80;94.90
49549;DHT22;35450;44.518;7.466;2023-02-28T14:49:29;5.90;94.70
49549;DHT22;35450;44.518;7.466;2023-02-28T14:52:34;5.90;94.60
49549;DHT22;35450;44.518;7.466;2023-02-28T14:55:45;5.90;94.50
49549;DHT22;35450;44.518;7.466;2023-02-28T14:58:54;5.90;94.60
49549;DHT22;35450;44.518;7.466;2023-02-28T15:02:24;6.00;94.60
49549;DHT22;35450;44.518;7.466;2023-02-28T15:05:33;6.00;94.60
49549;DHT22;35450;44.518;7.466;2023-02-28T15:08:37;6.00;94.50
49549;DHT22;35450;44.518;7.466;2023-02-28T15:11:46;6.00;94.60
49549;DHT22;35450;44.518;7.466;2023-02-28T15:14:51;6.00;94.70
49549;DHT22;35450;44.518;7.466;2023-02-28T15:17:56;6.10;95.10
49549;DHT22;35450;44.518;7.466;2023-02-28T15:21:12;5.90;94.80
49549;DHT22;35450;44.518;7.466;2023-02-28T15:27:41;5.90;95.00
49549;DHT22;35450;44.518;7.466;2023-02-28T15:30:56;5.80;95.00
49549;DHT22;35450;44.518;7.466;2023-02-28T15:34:04;5.70;95.30
49549;DHT22;35450;44.518;7.466;2023-02-28T15:40:57;5.70;95.80
49549;DHT22;35450;44.518;7.466;2023-02-28T15:47:30;5.60;96.20
49549;DHT22;35450;44.518;7.466;2023-02-28T15:50:35;5.60;96.40
49549;DHT22;35450;44.518;7.466;2023-02-28T15:57:04;5.50;96.70
49549;DHT22;35450;44.518;7.466;2023-02-28T16:00:18;5.50;96.90
49549;DHT22;35450;44.518;7.466;2023-02-28T16:03:24;5.60;96.90
49549;DHT22;35450;44.518;7.466;2023-02-28T16:06:37;5.50;96.70
49549;DHT22;35450;44.518;7.466;2023-02-28T16:09:45;5.50;96.60
49549;DHT22;35450;44.518;7.466;2023-02-28T16:12:52;5.60;96.30
49549;DHT22;35450;44.518;7.466;2023-02-28T16:15:56;5.70;96.10
49549;DHT22;35450;44.518;7.466;2023-02-28T16:19:00;5.70;95.50
49549;DHT22;35450;44.518;7.466;2023-02-28T16:22:04;5.60;95.80
49549;DHT22;35450;44.518;7.466;2023-02-28T16:25:14;5.60;95.40
49549;DHT22;35450;44.518;7.466;2023-02-28T16:28:22;5.60;95.40
49549;DHT22;35450;44.518;7.466;2023-02-28T16:31:28;5.70;95.50
49549;DHT22;35450;44.518;7.466;2023-02-28T16:34:32;5.60;95.70
49549;DHT22;35450;44.518;7.466;2023-02-28T16:37:36;5.70;95.70
49549;DHT22;35450;44.518;7.466;2023-02-28T16:40:41;5.60;95.50
49549;DHT22;35450;44.518;7.466;2023-02-28T16:43:46;5.60;95.60
49549;DHT22;35450;44.518;7.466;2023-02-28T16:46:51;5.70;95.40
49549;DHT22;35450;44.518;7.466;2023-02-28T16:49:55;5.70;95.30
49549;DHT22;35450;44.518;7.466;2023-02-28T16:53:00;5.70;95.10
49549;DHT22;35450;44.518;7.466;2023-02-28T16:56:04;5.80;95.10
49549;DHT22;35450;44.518;7.466;2023-02-28T16:59:11;5.80;95.00
49549;DHT22;35450;44.518;7.466;2023-02-28T17:02:16;5.80;95.00
49549;DHT22;35450;44.518;7.466;2023-02-28T17:05:23;5.80;94.80
49549;DHT22;35450;44.518;7.466;2023-02-28T17:08:27;5.80;94.60
49549;DHT22;35450;44.518;7.466;2023-02-28T17:11:33;5.80;94.50
49549;DHT22;35450;44.518;7.466;2023-02-28T17:14:38;5.80;94.70
49549;DHT22;35450;44.518;7.466;2023-02-28T17:17:43;5.80;94.80
49549;DHT22;35450;44.518;7.466;2023-02-28T17:20:48;5.80;95.20
49549;DHT22;35450;44.518;7.466;2023-02-28T17:23:52;5.90;95.60
49549;DHT22;35450;44.518;7.466;2023-02-28T17:26:56;5.90;96.00
49549;DHT22;35450;44.518;7.466;2023-02-28T17:30:00;5.90;96.30
49549;DHT22;35450;44.518;7.466;2023-02-28T17:33:04;5.90;96.80
49549;DHT22;35450;44.518;7.466;2023-02-28T17:36:20;5.90;96.30
49549;DHT22;35450;44.518;7.466;2023-02-28T17:39:25;5.80;96.50
49549;DHT22;35450;44.518;7.466;2023-02-28T17:42:29;5.80;96.60
49549;DHT22;35450;44.518;7.466;2023-02-28T17:45:33;5.80;96.20
49549;DHT22;35450;44.518;7.466;2023-02-28T17:48:39;5.80;95.70
49549;DHT22;35450;44.518;7.466;2023-02-28T17:51:43;5.90;95.30
49549;DHT22;35450;44.518;7.466;2023-02-28T17:54:48;5.80;95.50
49549;DHT22;35450;44.518;7.466;2023-02-28T17:57:52;5.90;95.10
49549;DHT22;35450;44.518;7.466;2023-02-28T18:00:56;5.90;95.30
49549;DHT22;35450;44.518;7.466;2023-02-28T18:04:00;5.90;95.50
49549;DHT22;35450;44.518;7.466;2023-02-28T18:07:05;5.90;95.80
49549;DHT22;35450;44.518;7.466;2023-02-28T18:10:15;5.90;95.70
49549;DHT22;35450;44.518;7.466;2023-02-28T18:13:23;5.90;95.70
49549;DHT22;35450;44.518;7.466;2023-02-28T18:16:27;5.80;95.70
49549;DHT22;35450;44.518;7.466;2023-02-28T18:19:31;5.90;95.70
49549;DHT22;35450;44.518;7.466;2023-02-28T18:22:37;5.80;95.80
49549;DHT22;35450;44.518;7.466;2023-02-28T18:25:41;5.80;96.10
49549;DHT22;35450;44.518;7.466;2023-02-28T18:28:46;5.80;96.20
49549;DHT22;35450;44.518;7.466;2023-02-28T18:31:51;5.90;96.10
49549;DHT22;35450;44.518;7.466;2023-02-28T18:34:55;5.90;96.00
49549;DHT22;35450;44.518;7.466;2023-02-28T18:38:12;5.80;95.90
49549;DHT22;35450;44.518;7.466;2023-02-28T18:41:18;5.70;95.70
49549;DHT22;35450;44.518;7.466;2023-02-28T18:44:24;5.50;95.90
49549;DHT22;35450;44.518;7.466;2023-02-28T18:47:28;5.60;95.90
49549;DHT22;35450;44.518;7.466;2023-02-28T18:50:32;5.60;95.70
49549;DHT22;35450;44.518;7.466;2023-02-28T18:53:38;5.70;95.30
49549;DHT22;35450;44.518;7.466;2023-02-28T18:56:43;5.70;95.30
49549;DHT22;35450;44.518;7.466;2023-02-28T18:59:48;5.70;95.40
49549;DHT22;35450;44.518;7.466;2023-02-28T19:02:52;5.70;95.50
49549;DHT22;35450;44.518;7.466;2023-02-28T19:05:58;5.60;95.90
49549;DHT22;35450;44.518;7.466;2023-02-28T19:09:03;5.60;95.50
49549;DHT22;35450;44.518;7.466;2023-02-28T19:12:07;5.50;95.90
49549;DHT22;35450;44.518;7.466;2023-02-28T19:15:12;5.50;95.90
49549;DHT22;35450;44.518;7.466;2023-02-28T19:18:16;5.60;95.60
49549;DHT22;35450;44.518;7.466;2023-02-28T19:21:23;5.60;96.10
49549;DHT22;35450;44.518;7.466;2023-02-28T19:24:29;5.70;96.30
49549;DHT22;35450;44.518;7.466;2023-02-28T19:27:33;5.60;95.80
49549;DHT22;35450;44.518;7.466;2023-02-28T19:30:37;5.70;96.10
49549;DHT22;35450;44.518;7.466;2023-02-28T19:33:42;5.70;96.10
49549;DHT22;35450;44.518;7.466;2023-02-28T19:36:46;5.70;96.00
49549;DHT22;35450;44.518;7.466;2023-02-28T19:39:50;5.70;96.40
49549;DHT22;35450;44.518;7.466;2023-02-28T19:42:57;5.60;96.50
49549;DHT22;35450;44.518;7.466;2023-02-28T19:46:01;5.50;97.10
49549;DHT22;35450;44.518;7.466;2023-02-28T19:49:05;5.60;97.30
49549;DHT22;35450;44.518;7.466;2023-02-28T19:52:09;5.60;96.50
49549;DHT22;35450;44.518;7.466;2023-02-28T19:55:15;5.60;96.20
49549;DHT22;35450;44.518;7.466;2023-02-28T19:58:19;5.70;96.30
49549;DHT22;35450;44.518;7.466;2023-02-28T20:01:24;5.70;95.90
49549;DHT22;35450;44.518;7.466;2023-02-28T20:04:28;5.80;95.90
49549;DHT22;35450;44.518;7.466;2023-02-28T20:07:32;5.80;95.70
49549;DHT22;35450;44.518;7.466;2023-02-28T20:10:36;5.70;95.90
49549;DHT22;35450;44.518;7.466;2023-02-28T20:13:40;5.70;95.30
49549;DHT22;35450;44.518;7.466;2023-02-28T20:16:45;5.80;95.60
49549;DHT22;35450;44.518;7.466;2023-02-28T20:19:49;5.70;95.90
49549;DHT22;35450;44.518;7.466;2023-02-28T20:22:53;5.80;96.10
49549;DHT22;35450;44.518;7.466;2023-02-28T20:26:00;5.90;96.10
49549;DHT22;35450;44.518;7.466;2023-02-28T20:29:06;5.80;96.00
49549;DHT22;35450;44.518;7.466;2023-02-28T20:32:11;5.70;96.60
49549;DHT22;35450;44.518;7.466;2023-02-28T20:35:17;5.60;97.30
49549;DHT22;35450;44.518;7.466;2023-02-28T20:38:21;5.70;97.50
49549;DHT22;35450;44.518;7.466;2023-02-28T20:41:25;5.70;97.20
49549;DHT22;35450;44.518;7.466;2023-02-28T20:44:29;5.70;97.00
49549;DHT22;35450;44.518;7.466;2023-02-28T20:47:33;5.80;96.90
49549;DHT22;35450;44.518;7.466;2023-02-28T20:50:37;5.70;96.80
49549;DHT22;35450;44.518;7.466;2023-02-28T20:53:41;5.70;96.70
49549;DHT22;35450;44.518;7.466;2023-02-28T20:56:46;5.80;96.50
49549;DHT22;35450;44.518;7.466;2023-02-28T20:59:50;5.70;96.50
49549;DHT22;35450;44.518;7.466;2023-02-28T21:02:54;5.50;96.90
49549;DHT22;35450;44.518;7.466;2023-02-28T21:05:59;5.60;97.10
49549;DHT22;35450;44.518;7.466;2023-02-28T21:09:06;5.60;97.20
49549;DHT22;35450;44.518;7.466;2023-02-28T21:12:10;5.70;97.00
49549;DHT22;35450;44.518;7.466;2023-02-28T21:15:14;5.70;97.10
49549;DHT22;35450;44.518;7.466;2023-02-28T21:18:20;5.70;96.50
49549;DHT22;35450;44.518;7.466;2023-02-28T21:21:25;5.70;96.10
49549;DHT22;35450;44.518;7.466;2023-02-28T21:24:29;5.60;96.90
49549;DHT22;35450;44.518;7.466;2023-02-28T21:27:32;5.40;97.70
49549;DHT22;35450;44.518;7.466;2023-02-28T21:30:37;5.50;97.90
49549;DHT22;35450;44.518;7.466;2023-02-28T21:33:43;5.50;97.90
49549;DHT22;35450;44.518;7.466;2023-02-28T21:36:47;5.50;97.70
49549;DHT22;35450;44.518;7.466;2023-02-28T21:39:51;5.60;97.50
49549;DHT22;35450;44.518;7.466;2023-02-28T21:42:55;5.60;96.90
49549;DHT22;35450;44.518;7.466;2023-02-28T21:46:05;5.60;96.60
49549;DHT22;35450;44.518;7.466;2023-02-28T21:49:09;5.80;96.80
49549;DHT22;35450;44.518;7.466;2023-02-28T21:52:13;5.80;97.10
49549;DHT22;35450;44.518;7.466;2023-02-28T21:55:17;5.60;97.20
49549;DHT22;35450;44.518;7.466;2023-02-28T21:58:20;5.60;97.60
49549;DHT22;35450;44.518;7.466;2023-02-28T22:01:33;5.60;97.60
49549;DHT22;35450;44.518;7.466;2023-02-28T22:04:37;5.70;97.60
49549;DHT22;35450;44.518;7.466;2023-02-28T22:07:43;5.70;97.60
49549;DHT22;35450;44.518;7.466;2023-02-28T22:10:47;5.70;97.70
49549;DHT22;35450;44.518;7.466;2023-02-28T22:13:55;5.80;97.70
49549;DHT22;35450;44.518;7.466;2023-02-28T22:17:00;5.70;97.70
49549;DHT22;35450;44.518;7.466;2023-02-28T22:20:04;5.70;97.40
49549;DHT22;35450;44.518;7.466;2023-02-28T22:23:09;5.80;97.30
49549;DHT22;35450;44.518;7.466;2023-02-28T22:26:16;5.80;96.80